createdAt,value
2017-03-08T08:07:52.888Z,85.34
2017-03-08T08:08:33.810Z,84.95
2017-03-08T08:09:14.197Z,85.43
2017-03-08T08:09:54.650Z,86.47
2017-03-08T08:10:35.031Z,85.05
2017-03-08T08:11:15.457Z,84.67
2017-03-08T08:11:55.816Z,84.2
2017-03-08T08:12:36.235Z,84.2
2017-03-08T08:14:33.818Z,84.48
2017-03-08T08:15:14.178Z,83.82
2017-03-08T08:15:54.619Z,84.48
2017-03-08T08:16:35.009Z,83.82
2017-03-08T08:18:32.682Z,83.15
2017-03-08T08:19:13.138Z,84.48
2017-03-08T08:19:53.504Z,84.14
2017-03-08T08:20:33.969Z,84.05
2017-03-08T08:22:31.532Z,83.19
2017-03-08T08:23:12.045Z,82.34
2017-03-08T08:23:52.460Z,82.24
2017-03-08T08:24:32.994Z,83.1
2017-03-08T08:25:13.421Z,82.34
2017-03-08T08:25:53.825Z,82.53
2017-03-08T08:26:34.313Z,82.62
2017-03-08T08:27:14.822Z,83.67
2017-03-08T08:27:55.412Z,83.48
2017-03-08T08:28:35.819Z,82.43
2017-03-08T08:29:16.213Z,82.71
2017-03-08T08:29:56.846Z,81.48
2017-03-08T08:30:37.466Z,81.77
2017-03-08T08:31:17.942Z,81.77
2017-03-08T08:31:58.669Z,82.43
2017-03-08T08:32:39.174Z,82.34
2017-03-08T08:33:19.643Z,82.34
2017-03-08T08:34:00.634Z,81.48
2017-03-08T08:34:41.562Z,82.53
2017-03-08T08:35:21.968Z,82.71
2017-03-08T08:36:02.390Z,81.96
2017-03-08T08:36:42.876Z,81.96
2017-03-08T08:37:23.388Z,82.43
2017-03-08T08:38:03.888Z,81.77
2017-03-08T08:38:44.533Z,81.38
2017-03-08T08:39:24.933Z,81.77
2017-03-08T08:40:05.538Z,82.34
2017-03-08T08:40:46.182Z,81.77
2017-03-08T08:41:26.601Z,81.2
2017-03-08T08:42:06.993Z,81.48
2017-03-08T08:42:47.945Z,82.34
2017-03-08T08:43:28.393Z,82.05
2017-03-08T08:44:08.913Z,82.34
2017-03-08T08:44:49.418Z,81.29
2017-03-08T08:45:29.799Z,81.38
2017-03-08T08:46:10.242Z,81.77
2017-03-08T08:46:50.715Z,81.1
2017-03-08T08:47:31.137Z,80.82
2017-03-08T08:48:11.522Z,80.44
2017-03-08T08:48:52.012Z,80.82
2017-03-08T08:49:32.426Z,80.15
2017-03-08T08:50:12.878Z,80.91
2017-03-08T08:50:53.245Z,79.68
2017-03-08T08:51:33.738Z,80.91
2017-03-08T08:52:14.155Z,80.34
2017-03-08T08:52:54.724Z,80.82
2017-03-08T08:53:34.990Z,80.34
2017-03-08T08:54:15.484Z,80.72
2017-03-08T08:54:55.999Z,81.54
2017-03-08T08:55:36.454Z,81.48
2017-03-08T08:56:16.854Z,81.58
2017-03-08T08:56:57.249Z,81.86
2017-03-08T08:57:37.640Z,81.96
2017-03-08T08:58:18.095Z,81.29
2017-03-08T08:58:58.735Z,81.01
2017-03-08T08:59:39.002Z,81.1
2017-03-08T09:00:19.740Z,80.82
2017-03-08T09:01:00.234Z,81.77
2017-03-08T09:01:40.632Z,81.29
2017-03-08T09:02:21.026Z,81.58
2017-03-08T09:03:01.442Z,81.1
2017-03-08T09:03:41.895Z,81.2
2017-03-08T09:05:54.649Z,79.52
2017-03-08T09:06:34.956Z,79.14
2017-03-08T09:07:15.387Z,78.29
2017-03-08T09:07:55.800Z,77
2017-03-08T09:08:36.221Z,76.33
2017-03-08T09:09:16.688Z,75.57
2017-03-08T09:09:57.129Z,76.04
2017-03-08T09:10:37.578Z,75.23
2017-03-08T09:11:18.007Z,73.99
2017-03-08T09:11:58.486Z,74.08
2017-03-08T09:12:38.940Z,73.32
2017-03-08T09:13:19.381Z,72.94
2017-03-08T09:13:59.792Z,71.89
2017-03-08T09:14:40.236Z,72.65
2017-03-08T09:15:20.612Z,73.03
2017-03-08T09:16:01.069Z,72.6
2017-03-08T09:16:41.526Z,72.31
2017-03-08T09:17:21.908Z,71.07
2017-03-08T09:18:02.370Z,70.53
2017-03-08T09:18:42.973Z,70.78
2017-03-08T09:19:23.520Z,71.01
2017-03-08T09:20:03.988Z,69.74
2017-03-08T09:20:44.466Z,69.7
2017-03-08T09:21:24.911Z,70.69
2017-03-08T09:22:05.462Z,70.5
2017-03-08T09:22:45.840Z,70.75
2017-03-08T09:23:26.270Z,71.42
2017-03-08T09:24:06.705Z,71.83
2017-03-08T09:24:47.062Z,71.64
2017-03-08T09:25:27.455Z,70.97
2017-03-08T09:26:07.902Z,70.56
2017-03-08T09:26:48.328Z,71.45
2017-03-08T09:27:28.786Z,70.59
2017-03-08T09:28:09.188Z,70.31
2017-03-08T09:28:49.694Z,69.7
2017-03-08T09:29:30.056Z,70.94
2017-03-08T09:30:10.484Z,71.7
2017-03-08T09:30:50.916Z,70.78
2017-03-08T09:31:31.417Z,70.78
2017-03-08T09:32:11.863Z,71.03
2017-03-08T09:32:52.331Z,72.17
2017-03-08T09:33:32.960Z,72.08
2017-03-08T09:34:13.636Z,72.62
2017-03-08T09:34:54.206Z,73.47
2017-03-08T09:35:34.631Z,73.89
2017-03-08T09:36:15.161Z,73.8
2017-03-08T09:36:55.555Z,72.69
2017-03-08T09:37:36.234Z,71.26
2017-03-08T09:38:16.656Z,70.31
2017-03-08T09:38:57.094Z,70.82
2017-03-08T09:39:37.439Z,69.48
2017-03-08T09:40:17.847Z,68.98
2017-03-08T09:40:58.266Z,69.93
2017-03-08T09:41:38.685Z,70.88
2017-03-08T09:42:19.283Z,70.4
2017-03-08T09:42:59.722Z,70.4
2017-03-08T09:43:40.160Z,71.07
2017-03-08T09:44:20.590Z,70.02
2017-03-08T09:45:01.079Z,70.25
2017-03-08T09:45:41.501Z,69.87
2017-03-08T09:47:34.040Z,68.18
2017-03-08T09:48:14.494Z,67.9
2017-03-08T09:48:55.010Z,67.1
2017-03-08T09:49:35.376Z,67.48
2017-03-08T09:50:15.792Z,67.1
2017-03-08T09:50:56.170Z,67.77
2017-03-08T09:51:36.596Z,68.24
2017-03-08T09:52:16.986Z,68.72
2017-03-08T09:52:57.430Z,68.44
2017-03-08T09:53:37.795Z,67.39
2017-03-08T09:54:18.384Z,67.48
2017-03-08T09:54:58.912Z,66.72
2017-03-08T09:55:39.305Z,66.28
2017-03-08T09:56:19.730Z,65.86
2017-03-08T09:57:00.367Z,65.99
2017-03-08T09:57:40.884Z,64.94
2017-03-08T09:58:21.226Z,64.05
2017-03-08T09:59:01.662Z,64.75
2017-03-08T09:59:42.325Z,64.28
2017-03-08T10:00:22.706Z,63.51
2017-03-08T10:01:03.180Z,63.07
2017-03-08T10:01:43.618Z,61.29
2017-03-08T10:02:24.134Z,60.27
2017-03-08T10:03:04.609Z,58.73
2017-03-08T10:03:45.031Z,58.51
2017-03-08T10:04:25.505Z,58.7
2017-03-08T10:05:06.004Z,59.66
2017-03-08T10:05:46.490Z,59.28
2017-03-08T10:06:27.112Z,58.42
2017-03-08T10:07:07.571Z,58.9
2017-03-08T10:07:48.085Z,57.75
2017-03-08T10:08:28.549Z,57.11
2017-03-08T10:09:08.964Z,58.14
2017-03-08T10:09:49.459Z,59.09
2017-03-08T10:10:30.047Z,58.39
2017-03-08T10:11:10.510Z,59.16
2017-03-08T10:11:50.964Z,59.22
2017-03-08T10:12:31.441Z,60.08
2017-03-08T10:13:11.899Z,60.17
2017-03-08T10:13:52.443Z,61.57
2017-03-08T10:14:32.821Z,62.62
2017-03-08T10:15:13.281Z,61.96
2017-03-08T10:15:53.781Z,62.08
2017-03-08T10:17:51.476Z,61.6
2017-03-08T10:18:31.968Z,61.04
2017-03-08T10:19:12.452Z,61.51
2017-03-08T10:19:52.983Z,61.89
2017-03-08T10:20:33.508Z,61.32
2017-03-08T10:21:13.942Z,60.46
2017-03-08T10:21:54.447Z,60.94
2017-03-08T10:22:34.919Z,60.27
2017-03-08T10:23:15.348Z,60.78
2017-03-08T10:23:56.051Z,60.02
2017-03-08T10:24:36.566Z,59.44
2017-03-08T10:25:17.088Z,58.77
2017-03-08T10:25:57.447Z,59.38
2017-03-08T10:26:37.921Z,59.09
2017-03-08T10:27:18.470Z,58.07
2017-03-08T10:27:58.945Z,56.13
2017-03-08T10:28:39.429Z,56.48
2017-03-08T10:29:19.880Z,57.37
2017-03-08T10:30:00.353Z,56.99
2017-03-08T10:30:40.821Z,56.1
2017-03-08T10:31:21.281Z,55.72
2017-03-08T10:32:01.748Z,55.62
2017-03-08T10:32:42.211Z,56.41
2017-03-08T10:33:22.687Z,55.55
2017-03-08T10:34:03.176Z,55.46
2017-03-08T10:34:43.647Z,54.89
2017-03-08T10:35:24.086Z,54.22
2017-03-08T10:36:04.555Z,54.34
2017-03-08T10:36:45.129Z,54.22
2017-03-08T10:37:25.787Z,55.27
2017-03-08T10:38:06.296Z,55.27
2017-03-08T10:38:46.767Z,55.36
2017-03-08T10:39:27.303Z,53.93
2017-03-08T10:40:07.768Z,54.41
2017-03-08T10:40:48.216Z,54.86
2017-03-08T10:41:28.690Z,56.58
2017-03-08T10:42:09.144Z,57.43
2017-03-08T10:42:49.595Z,56.87
2017-03-08T10:43:30.054Z,56.48
2017-03-08T10:45:17.592Z,54.89
2017-03-08T10:45:58.371Z,55.62
2017-03-08T10:46:38.861Z,55.75
2017-03-08T10:47:19.308Z,54.79
2017-03-08T10:47:59.764Z,55.46
2017-03-08T10:48:40.263Z,54.5
2017-03-08T10:49:20.708Z,54.32
2017-03-08T10:50:01.198Z,54.19
2017-03-08T10:50:41.825Z,55.46
2017-03-08T10:51:22.628Z,55.01
2017-03-08T10:52:03.439Z,54.13
2017-03-08T10:52:43.731Z,54.86
2017-03-08T10:53:24.213Z,56.1
2017-03-08T10:54:04.745Z,55.43
2017-03-08T10:54:45.225Z,55.34
2017-03-08T10:55:25.727Z,55.72
2017-03-08T10:56:06.214Z,55.72
2017-03-08T10:56:46.685Z,54.29
2017-03-08T10:57:27.158Z,52.69
2017-03-08T10:59:19.798Z,52
2017-03-08T11:00:00.299Z,51.9
2017-03-08T11:00:40.870Z,52.09
2017-03-08T11:01:21.422Z,52.22
2017-03-08T11:02:01.994Z,51.64
2017-03-08T11:02:42.454Z,50.49
2017-03-08T11:03:23.003Z,50.78
2017-03-08T11:04:03.412Z,50.78
2017-03-08T11:04:44.050Z,49.83
2017-03-08T11:05:24.604Z,50.78
2017-03-08T11:06:05.037Z,50.78
2017-03-08T11:06:45.509Z,50.76
2017-03-08T11:07:26.029Z,51.62
2017-03-08T11:08:06.461Z,52.45
2017-03-08T11:08:46.998Z,52.26
2017-03-08T11:09:27.447Z,52.45
2017-03-08T11:10:07.902Z,53.41
2017-03-08T11:10:48.366Z,52.64
2017-03-08T11:11:28.769Z,52.64
2017-03-08T11:13:46.564Z,53.59
2017-03-08T11:14:26.940Z,54.17
2017-03-08T11:15:07.384Z,54.45
2017-03-08T11:15:47.765Z,54.14
2017-03-08T11:16:28.195Z,54.61
2017-03-08T11:17:08.558Z,54.71
2017-03-08T11:17:49.014Z,54.52
2017-03-08T11:18:29.435Z,55.19
2017-03-08T11:19:09.837Z,54.36
2017-03-08T11:19:50.255Z,54.74
2017-03-08T11:20:30.688Z,54.17
2017-03-08T11:21:11.117Z,53.97
2017-03-08T11:21:51.513Z,53.59
2017-03-08T11:22:31.923Z,54.07
2017-03-08T11:23:12.367Z,53.78
2017-03-08T11:23:52.812Z,54.17
2017-03-08T11:24:33.342Z,54.64
2017-03-08T11:25:13.811Z,54.64
2017-03-08T11:25:54.211Z,54.17
2017-03-08T11:26:34.653Z,54.07
2017-03-08T11:27:15.088Z,53.78
2017-03-08T11:27:55.487Z,53.21
2017-03-08T11:28:35.894Z,53.95
2017-03-08T11:29:16.301Z,54.64
2017-03-08T11:29:56.868Z,54.71
2017-03-08T11:30:37.262Z,54.43
2017-03-08T11:31:17.690Z,54.24
2017-03-08T11:31:58.115Z,54.04
2017-03-08T11:32:38.528Z,54.14
2017-03-08T11:33:18.946Z,54.24
2017-03-08T11:33:59.395Z,54.52
2017-03-08T11:34:39.788Z,54.14
2017-03-08T11:35:20.268Z,53.95
2017-03-08T11:36:00.621Z,53.56
2017-03-08T11:36:41.036Z,53.19
2017-03-08T11:37:21.435Z,54.04
2017-03-08T11:38:01.820Z,53.28
2017-03-08T11:38:42.264Z,53.19
2017-03-08T11:39:22.694Z,53.19
2017-03-08T11:40:03.154Z,54.14
2017-03-08T11:40:43.601Z,54.24
2017-03-08T11:42:36.128Z,53.85
2017-03-08T11:43:16.504Z,53.66
2017-03-08T11:43:56.964Z,53.56
2017-03-08T11:46:14.761Z,54.14
2017-03-08T11:46:55.128Z,54.8
2017-03-08T11:47:35.575Z,55.28
2017-03-08T11:48:15.993Z,54.24
2017-03-08T11:48:56.419Z,53.56
2017-03-08T11:49:36.852Z,53.76
2017-03-08T11:50:17.276Z,54.33
2017-03-08T11:50:59.464Z,54.61
2017-03-08T11:51:39.933Z,55.09
2017-03-08T11:52:20.332Z,55.57
2017-03-08T11:53:00.890Z,54.9
2017-03-08T11:53:41.175Z,54.71
2017-03-08T11:54:21.565Z,54.61
2017-03-08T11:55:01.963Z,54.52
2017-03-08T11:55:42.363Z,55.28
2017-03-08T11:56:22.800Z,54.8
2017-03-08T11:57:03.233Z,54.14
2017-03-08T11:57:43.640Z,53.95
2017-03-08T11:58:24.076Z,54.33
2017-03-08T11:59:04.637Z,55
2017-03-08T11:59:45.140Z,54.24
2017-03-08T12:00:25.662Z,55.19
2017-03-08T12:01:06.378Z,55.28
2017-03-08T12:01:47.130Z,55.19
2017-03-08T12:02:27.702Z,55.09
2017-03-08T12:03:08.304Z,54.45
2017-03-08T12:03:48.861Z,53.31
2017-03-08T12:04:29.378Z,53.31
2017-03-08T12:05:09.857Z,53.41
2017-03-08T12:05:50.306Z,53.21
2017-03-08T12:06:30.762Z,53.88
2017-03-08T12:07:11.253Z,52.73
2017-03-08T12:07:51.726Z,52.45
2017-03-08T12:08:32.211Z,52.64
2017-03-08T12:09:12.702Z,52.95
2017-03-08T12:09:53.401Z,52.67
2017-03-08T12:10:33.976Z,52.48
2017-03-08T12:11:14.463Z,52.19
2017-03-08T12:11:54.986Z,52.26
2017-03-08T12:12:35.451Z,52.45
2017-03-08T12:13:16.214Z,52.55
2017-03-08T12:13:56.643Z,52.45
2017-03-08T12:14:37.037Z,53.05
2017-03-08T12:15:17.527Z,53.31
2017-03-08T12:15:57.982Z,52.55
2017-03-08T12:16:38.714Z,52.26
2017-03-08T12:17:19.228Z,52.16
2017-03-08T12:17:59.787Z,52.55
2017-03-08T12:18:40.212Z,53.02
2017-03-08T12:19:20.750Z,53.02
2017-03-08T12:20:01.330Z,52.64
2017-03-08T12:20:41.760Z,52.64
2017-03-08T12:21:22.317Z,53.41
2017-03-08T12:22:02.796Z,53.41
2017-03-08T12:22:43.327Z,52.73
2017-03-08T12:23:23.872Z,52.42
2017-03-08T12:24:04.356Z,53.31
2017-03-08T12:24:44.821Z,53.31
2017-03-08T12:25:25.304Z,53.59
2017-03-08T12:26:05.781Z,52.92
2017-03-08T12:26:46.205Z,52.45
2017-03-08T12:27:26.745Z,52.26
2017-03-08T12:28:07.217Z,53.02
2017-03-08T12:28:47.709Z,52.73
2017-03-08T12:29:28.136Z,53.41
2017-03-08T12:30:08.699Z,53.41
2017-03-08T12:30:49.304Z,53
2017-03-08T12:31:29.793Z,53.41
2017-03-08T12:32:10.293Z,53.5
2017-03-08T12:32:50.748Z,53.31
2017-03-08T12:33:31.224Z,53.76
2017-03-08T12:34:11.750Z,54.14
2017-03-08T12:34:52.166Z,54.04
2017-03-08T12:35:32.749Z,54.33
2017-03-08T12:36:13.226Z,54.61
2017-03-08T12:36:53.797Z,55.28
2017-03-08T12:37:34.298Z,55.28
2017-03-08T12:38:14.855Z,55.09
2017-03-08T12:38:55.358Z,55.38
2017-03-08T12:39:35.793Z,55.28
2017-03-08T12:40:16.285Z,55.47
2017-03-08T12:40:56.844Z,55.95
2017-03-08T12:42:50.110Z,56.3
2017-03-08T12:43:30.519Z,57.16
2017-03-08T12:44:10.964Z,57.54
2017-03-08T12:44:51.434Z,58.87
2017-03-08T12:45:32.206Z,56.68
2017-03-08T12:46:12.952Z,57.64
2017-03-08T12:46:53.556Z,58.02
2017-03-08T12:47:34.191Z,58.3
2017-03-08T12:48:14.668Z,60.02
2017-03-08T12:48:55.135Z,58.69
2017-03-08T12:49:35.603Z,58.84
2017-03-08T12:50:16.028Z,58.87
2017-03-08T12:50:56.463Z,57.89
2017-03-08T12:51:36.916Z,59.61
2017-03-08T12:52:17.355Z,61.13
2017-03-08T12:52:57.880Z,63.13
2017-03-08T12:53:38.382Z,62.94
2017-03-08T12:54:18.775Z,63.99
2017-03-08T12:54:59.303Z,64.62
2017-03-08T12:56:57.422Z,63.48
2017-03-08T12:57:38.834Z,63.2
2017-03-08T12:58:20.425Z,65.19
2017-03-08T12:59:01.074Z,65.19
2017-03-08T12:59:41.608Z,65.29
2017-03-08T13:00:22.144Z,65
2017-03-08T13:01:02.715Z,66.24
2017-03-08T13:01:43.154Z,66.53
2017-03-08T13:02:23.587Z,66.53
2017-03-08T13:03:04.116Z,66.72
2017-03-08T13:03:44.640Z,67.67
2017-03-08T13:04:25.156Z,67.76
2017-03-08T13:05:05.634Z,68.62
2017-03-08T13:05:46.205Z,69.48
2017-03-08T13:06:26.669Z,68.15
2017-03-08T13:07:07.163Z,68.24
2017-03-08T13:07:47.590Z,69.67
2017-03-08T13:08:28.023Z,68.9
2017-03-08T13:09:08.461Z,68.9
2017-03-08T13:11:21.144Z,68.11
2017-03-08T13:12:01.597Z,69.85
2017-03-08T13:12:42.090Z,70.97
2017-03-08T13:13:22.573Z,71.44
2017-03-08T13:14:03.069Z,71.82
2017-03-08T13:14:43.536Z,70.68
2017-03-08T13:15:24.653Z,70.68
2017-03-08T13:16:05.838Z,71.91
2017-03-08T13:16:46.284Z,72.96
2017-03-08T13:17:26.807Z,72.77
2017-03-08T13:18:07.262Z,74.29
2017-03-08T13:18:47.763Z,73.15
2017-03-08T13:19:28.334Z,73.91
2017-03-08T13:20:08.869Z,73.44
2017-03-08T13:20:49.381Z,72.96
2017-03-08T13:21:29.808Z,73.06
2017-03-08T13:22:10.306Z,74.77
2017-03-08T13:22:50.764Z,75.43
2017-03-08T13:23:31.193Z,76.57
2017-03-08T13:24:11.635Z,75.24
2017-03-08T13:24:52.090Z,75.53
2017-03-08T13:25:32.661Z,76.67
2017-03-08T13:26:13.142Z,77.34
2017-03-08T13:26:53.660Z,77.81
2017-03-08T13:27:34.146Z,77.53
2017-03-08T13:28:14.588Z,77.91
2017-03-08T13:28:55.044Z,77.91
2017-03-08T13:30:47.718Z,77.24
2017-03-08T13:31:28.131Z,78.38
2017-03-08T13:32:08.631Z,77.58
2017-03-08T13:32:49.236Z,79.01
2017-03-08T13:33:29.728Z,80.05
2017-03-08T13:34:12.515Z,78.63
2017-03-08T13:34:54.678Z,79.05
2017-03-08T13:35:36.616Z,79.11
2017-03-08T13:36:17.169Z,79.96
2017-03-08T13:36:57.699Z,80.44
2017-03-08T13:37:38.230Z,79.68
2017-03-08T13:38:18.666Z,79.2
2017-03-08T13:38:59.101Z,79.49
2017-03-08T13:39:39.554Z,79.39
2017-03-08T13:40:20.065Z,80.72
2017-03-08T13:41:00.501Z,80.91
2017-03-08T13:41:41.049Z,80.34
2017-03-08T13:42:21.487Z,79.68
2017-03-08T13:43:01.996Z,79.11
2017-03-08T13:43:42.434Z,80.44
2017-03-08T13:44:23.138Z,80.91
2017-03-08T13:45:03.601Z,80.82
2017-03-08T13:45:44.121Z,80.15
2017-03-08T13:46:24.679Z,80.82
2017-03-08T13:47:05.239Z,82.05
2017-03-08T13:47:46.401Z,81.01
2017-03-08T13:48:26.858Z,81.2
2017-03-08T13:49:07.378Z,81.29
2017-03-08T13:49:48.024Z,82.05
2017-03-08T13:50:28.682Z,83.86
2017-03-08T13:51:09.096Z,83.29
2017-03-08T13:51:49.679Z,84.24
2017-03-08T13:52:30.369Z,84.24
2017-03-08T13:53:10.782Z,83.67
2017-03-08T13:53:51.398Z,83.86
2017-03-08T13:54:31.889Z,84.24
2017-03-08T13:55:14.093Z,84.05
2017-03-08T13:55:54.623Z,85.28
2017-03-08T13:56:35.226Z,86.14
2017-03-08T13:57:15.751Z,84.52
2017-03-08T13:57:56.204Z,85.19
2017-03-08T13:58:36.699Z,85.47
2017-03-08T13:59:17.569Z,85.1
2017-03-08T13:59:58.033Z,85.28
2017-03-08T14:00:38.679Z,85.95
2017-03-08T14:01:19.180Z,86.61
2017-03-08T14:01:59.623Z,85.47
2017-03-08T14:02:40.216Z,85.47
2017-03-08T14:03:20.708Z,85.66
2017-03-08T14:04:01.230Z,86.43
2017-03-08T14:04:41.708Z,86.43
2017-03-08T14:05:22.260Z,87.76
2017-03-08T14:06:02.824Z,87.57
2017-03-08T14:06:43.571Z,87.66
2017-03-08T14:07:24.138Z,86.61
2017-03-08T14:08:04.589Z,86.38
2017-03-08T14:08:45.064Z,86.8
2017-03-08T14:09:25.614Z,87.47
2017-03-08T14:10:06.145Z,87.47
2017-03-08T14:10:46.642Z,87.09
2017-03-08T14:11:27.137Z,87.57
2017-03-08T14:12:07.590Z,87.57
2017-03-08T14:12:48.197Z,88.42
2017-03-08T14:13:28.745Z,87.71
2017-03-08T14:14:09.297Z,86.76
2017-03-08T14:14:49.893Z,86.38
2017-03-08T14:16:47.577Z,87.62
2017-03-08T14:17:27.982Z,87.62
2017-03-08T14:18:08.418Z,87.81
2017-03-08T14:18:48.998Z,88.28
2017-03-08T14:19:29.473Z,88
2017-03-08T14:20:10.033Z,88.09
2017-03-08T14:20:50.537Z,88.67
2017-03-08T14:21:31.169Z,87.71
2017-03-08T14:22:11.664Z,88.28
2017-03-08T14:22:52.122Z,90.75
2017-03-08T14:23:32.619Z,88.57
2017-03-08T14:24:13.091Z,88.76
2017-03-08T14:24:53.756Z,89.04
2017-03-08T14:25:34.359Z,89.8
2017-03-08T14:26:14.861Z,88.09
2017-03-08T14:26:55.887Z,87.62
2017-03-08T14:27:36.331Z,88.95
2017-03-08T14:28:16.897Z,90.19
2017-03-08T14:28:57.308Z,90.09
2017-03-08T14:29:37.906Z,89.61
2017-03-08T14:30:18.410Z,89.04
2017-03-08T14:30:59.091Z,89.23
2017-03-08T14:31:39.612Z,88.57
2017-03-08T14:32:20.137Z,88.95
2017-03-08T14:33:00.671Z,89.52
2017-03-08T14:33:41.430Z,90.28
2017-03-08T14:34:21.925Z,88.38
2017-03-08T14:35:02.429Z,89.8
2017-03-08T14:37:15.206Z,89.71
2017-03-08T14:37:55.760Z,90
2017-03-08T14:38:36.180Z,90.56
2017-03-08T14:39:16.652Z,89.23
2017-03-08T14:39:57.147Z,89.04
2017-03-08T14:40:37.605Z,89.9
2017-03-08T14:41:19.893Z,89.42
2017-03-08T14:42:00.393Z,90.56
2017-03-08T14:42:40.984Z,90.37
2017-03-08T14:43:23.108Z,90.85
2017-03-08T14:44:04.042Z,90.28
2017-03-08T14:44:44.511Z,90.09
2017-03-08T14:45:25.015Z,90.47
2017-03-08T14:46:06.173Z,91.33
2017-03-08T14:46:47.466Z,89.8
2017-03-08T14:47:28.994Z,90.47
2017-03-08T14:48:09.427Z,90.19
2017-03-08T14:48:50.229Z,90
2017-03-08T14:49:30.838Z,90.28
2017-03-08T14:50:11.459Z,90.85
2017-03-08T14:50:51.958Z,89.14
2017-03-08T14:51:32.915Z,89.61
2017-03-08T14:53:28.356Z,91.13
2017-03-08T14:54:08.765Z,89.52
2017-03-08T14:54:49.414Z,90.66
2017-03-08T14:55:30.027Z,89.33
2017-03-08T14:56:10.405Z,90.66
2017-03-08T14:56:51.062Z,90.75
2017-03-08T14:57:31.362Z,90.56
2017-03-08T14:58:12.388Z,91.13
2017-03-08T14:58:52.627Z,90.37
2017-03-08T14:59:33.057Z,89.61
2017-03-08T15:00:19.087Z,90.52
2017-03-08T15:00:57.977Z,90.89
2017-03-08T15:01:39.957Z,90.52
2017-03-08T15:02:20.370Z,89.56
2017-03-08T15:03:00.863Z,91.66
2017-03-08T15:03:41.370Z,90.04
2017-03-08T15:04:21.787Z,90.33
2017-03-08T15:05:02.243Z,90.42
2017-03-08T15:05:42.745Z,90.14
2017-03-08T15:06:23.166Z,91.08
2017-03-08T15:07:03.728Z,90.33
2017-03-08T15:07:45.056Z,90.37
2017-03-08T15:08:25.588Z,89.61
2017-03-08T15:09:06.040Z,91.42
2017-03-08T15:09:46.523Z,89.33
2017-03-08T15:10:27.176Z,89.09
2017-03-08T15:11:07.557Z,91.33
2017-03-08T15:11:48.061Z,90.75
2017-03-08T15:12:28.477Z,90.56
2017-03-08T15:13:09.182Z,90.8
2017-03-08T15:13:49.696Z,89.94
2017-03-08T15:14:30.590Z,91.56
2017-03-08T15:15:11.274Z,89.28
2017-03-08T15:15:52.097Z,89.75
2017-03-08T15:16:33.160Z,90.7
2017-03-08T15:17:13.827Z,90.52
2017-03-08T15:17:54.261Z,90.33
2017-03-08T15:19:42.544Z,90.8
2017-03-08T15:20:23.042Z,90.33
2017-03-08T15:21:03.506Z,90.8
2017-03-08T15:21:43.883Z,89.37
2017-03-08T15:22:24.301Z,90.75
2017-03-08T15:23:04.727Z,90.94
2017-03-08T15:23:45.166Z,90.23
2017-03-08T15:24:25.549Z,90.37
2017-03-08T15:25:07.359Z,91.18
2017-03-08T15:25:47.780Z,90.7
2017-03-08T15:26:28.244Z,90.33
2017-03-08T15:27:08.778Z,89.9
2017-03-08T15:27:49.159Z,90.37
2017-03-08T15:28:29.555Z,90.85
2017-03-08T15:29:09.997Z,90.23
2017-03-08T15:29:50.434Z,90.28
2017-03-08T15:30:30.806Z,90.47
2017-03-08T15:31:11.206Z,90.37
2017-03-08T15:31:52.435Z,91.13
2017-03-08T15:32:33.089Z,89.33
2017-03-08T15:33:13.897Z,90.66
2017-03-08T15:33:54.408Z,90.75
2017-03-08T15:34:34.782Z,90.75
2017-03-08T15:36:27.451Z,90.37
2017-03-08T15:37:07.802Z,91.42
2017-03-08T15:37:48.258Z,90.8
2017-03-08T15:38:28.677Z,91.33
2017-03-08T15:39:09.031Z,91.42
2017-03-08T15:39:49.431Z,89.37
2017-03-08T15:40:29.999Z,90.23
2017-03-08T15:41:10.417Z,91.37
2017-03-08T15:41:50.849Z,90.7
2017-03-08T15:42:31.223Z,91.28
2017-03-08T15:43:11.813Z,90.52
2017-03-08T15:43:52.415Z,91.66
2017-03-08T15:44:32.822Z,91.08
2017-03-08T15:45:13.305Z,90.61
2017-03-08T15:45:55.168Z,90.04
2017-03-08T15:46:35.653Z,90.42
2017-03-08T15:47:16.068Z,90.09
2017-03-08T15:47:56.510Z,90.75
2017-03-08T15:48:37.090Z,90.8
2017-03-08T15:49:18.086Z,90.7
2017-03-08T15:50:00.633Z,90.33
2017-03-08T15:50:40.807Z,90.33
2017-03-08T15:51:21.261Z,90.8
2017-03-08T15:52:01.847Z,90.42
2017-03-08T15:52:42.312Z,90.52
2017-03-08T15:53:23.881Z,90.28
2017-03-08T15:54:04.988Z,90.42
2017-03-08T15:54:48.554Z,90.14
2017-03-08T15:56:36.297Z,90.99
2017-03-08T15:57:16.652Z,90.7
2017-03-08T15:57:57.013Z,90.61
2017-03-08T15:58:37.446Z,90.99
2017-03-08T15:59:17.919Z,90.8
2017-03-08T15:59:58.405Z,90.52
2017-03-08T16:00:38.840Z,90.42
2017-03-08T16:01:19.238Z,90.7
2017-03-08T16:01:59.647Z,90.33
2017-03-08T16:02:40.050Z,90.33
2017-03-08T16:03:20.501Z,90.14
2017-03-08T16:04:00.898Z,90.7
2017-03-08T16:04:41.302Z,90.7
2017-03-08T16:05:21.705Z,90.14
2017-03-08T16:06:02.097Z,91.28
2017-03-08T16:06:42.529Z,91.47
2017-03-08T16:07:22.985Z,90.89
2017-03-08T16:08:03.370Z,91.18
2017-03-08T16:08:43.772Z,91.42
2017-03-08T16:09:24.190Z,90.8
2017-03-08T16:10:04.574Z,91.66
2017-03-08T16:10:44.970Z,91.66
2017-03-08T16:11:25.394Z,91.37
2017-03-08T16:12:05.759Z,91.04
2017-03-08T16:12:46.138Z,90.94
2017-03-08T16:13:26.515Z,91.47
2017-03-08T16:14:06.917Z,90.99
2017-03-08T16:14:47.333Z,91.47
2017-03-08T16:15:27.705Z,92.13
2017-03-08T16:16:08.115Z,90.89
2017-03-08T16:16:48.499Z,92.03
2017-03-08T16:17:28.933Z,91.66
2017-03-08T16:18:09.359Z,91.13
2017-03-08T16:18:49.741Z,91.56
2017-03-08T16:19:30.153Z,92.13
2017-03-08T16:20:10.555Z,92.41
2017-03-08T16:20:51.006Z,91.28
2017-03-08T16:21:31.362Z,91.85
2017-03-08T16:22:11.816Z,93.04
2017-03-08T16:22:52.232Z,80.4
2017-03-08T16:23:32.634Z,86.95
2017-03-08T16:24:13.038Z,88.95
2017-03-08T16:24:53.464Z,90.09
2017-03-08T16:25:33.889Z,88.85
2017-03-08T16:27:51.689Z,89.33
2017-03-08T16:28:36.496Z,88.28
2017-03-08T16:29:16.374Z,89.9
2017-03-08T16:29:58.696Z,90.28
2017-03-08T16:30:39.862Z,88.47
2017-03-08T16:31:21.090Z,89.52
2017-03-08T16:33:40.476Z,89.28
2017-03-08T16:34:20.870Z,90.19
2017-03-08T16:35:01.307Z,89.9
2017-03-08T16:36:59.692Z,89.52
2017-03-08T16:37:41.809Z,90.19
2017-03-08T16:40:01.119Z,89.61
2017-03-08T16:40:41.464Z,89.56
2017-03-08T16:41:21.868Z,88.95
2017-03-08T16:42:02.300Z,90.7
2017-03-08T16:42:42.674Z,89.33
2017-03-08T16:43:23.073Z,89.52
2017-03-08T16:44:03.462Z,89.28
2017-03-08T16:44:43.857Z,90.28
2017-03-08T16:45:24.282Z,89.37
2017-03-08T16:46:04.681Z,89.47
2017-03-08T16:46:45.094Z,90.04
2017-03-08T16:47:25.491Z,90.42
2017-03-08T16:48:05.933Z,90.61
2017-03-08T16:48:46.311Z,90.33
2017-03-08T16:49:26.767Z,89.47
2017-03-08T16:50:07.118Z,90.23
2017-03-08T16:50:47.560Z,89.37
2017-03-08T16:51:27.956Z,89.85
2017-03-08T16:52:08.383Z,89.85
2017-03-08T16:52:48.781Z,90.42
2017-03-08T16:53:29.172Z,89.85
2017-03-08T16:54:09.623Z,89.66
2017-03-08T16:54:50.073Z,89.75
2017-03-08T16:55:30.484Z,90.42
2017-03-08T16:56:10.900Z,90.7
2017-03-08T16:56:51.277Z,90.23
2017-03-08T16:57:31.654Z,89.85
2017-03-08T16:58:12.050Z,90.61
2017-03-08T16:58:52.476Z,89.56
2017-03-08T16:59:32.854Z,90.23
2017-03-08T17:00:13.296Z,90.33
2017-03-08T17:00:53.710Z,89.37
2017-03-08T17:01:34.118Z,90.33
2017-03-08T17:02:14.517Z,89.75
2017-03-08T17:04:28.270Z,90.42
2017-03-08T17:06:23.555Z,89.85
2017-03-08T17:07:03.989Z,90.52
2017-03-08T17:07:45.552Z,90.89
2017-03-08T17:08:27.772Z,90.14
2017-03-08T17:09:08.340Z,89.85
2017-03-08T17:09:48.913Z,90.52
2017-03-08T17:10:30.466Z,89.47
2017-03-08T17:11:13.573Z,90.33
2017-03-08T17:11:55.633Z,90.33
2017-03-08T17:12:36.843Z,90.14
2017-03-08T17:13:18.060Z,72.74
2017-03-08T17:14:00.404Z,24.99
2017-03-08T17:14:40.831Z,20.14
2017-03-08T17:15:21.393Z,42.19
2017-03-08T17:16:01.922Z,60.53
2017-03-08T17:16:42.356Z,77.36
2017-03-08T17:17:24.716Z,72.03
2017-03-08T17:18:05.968Z,71.94
2017-03-08T17:18:46.365Z,71.56
2017-03-08T17:19:27.259Z,67.94
2017-03-08T17:20:08.699Z,70.7
2017-03-08T17:21:57.789Z,69.27
2017-03-08T17:22:39.517Z,71.56
2017-03-08T17:23:21.537Z,71.46
2017-03-08T17:24:01.529Z,69.66
2017-03-08T17:24:42.040Z,73.27
2017-03-08T17:25:22.542Z,70.23
2017-03-08T17:26:03.834Z,67.28
2017-03-08T17:26:44.876Z,64.43
2017-03-08T17:27:33.824Z,67.28
2017-03-08T17:28:14.261Z,58.73
2017-03-08T17:28:54.643Z,61.77
2017-03-08T17:31:15.763Z,62.05